createdAt,value
2019-04-20T00:01:28.712Z,7.03
2019-04-20T00:03:53.743Z,7.02
2019-04-20T00:06:22.340Z,6.85
2019-04-20T00:08:58.688Z,6.80
2019-04-20T00:11:28.364Z,6.76
2019-04-20T00:14:01.333Z,6.73
2019-04-20T00:16:23.090Z,6.74
2019-04-20T00:18:55.655Z,6.96
2019-04-20T00:21:49.658Z,6.93
2019-04-20T00:24:23.358Z,7.10
2019-04-20T00:29:35.319Z,6.99
2019-04-20T00:32:01.618Z,6.72
2019-04-20T00:34:27.910Z,6.43
2019-04-20T00:36:49.774Z,6.31
2019-04-20T00:39:20.184Z,6.44
2019-04-20T00:41:56.216Z,6.57
2019-04-20T00:44:26.905Z,6.41
2019-04-20T00:47:03.170Z,6.53
2019-04-20T00:49:36.040Z,6.69
2019-04-20T00:52:21.201Z,7.22
2019-04-20T00:54:22.257Z,7.34
2019-04-20T00:56:53.178Z,7.34
2019-04-20T00:59:35.401Z,7.17
2019-04-20T01:02:10.315Z,7.05
2019-04-20T01:04:44.698Z,7.04
2019-04-20T01:07:15.232Z,6.90
2019-04-20T01:10:05.243Z,6.65
2019-04-20T01:12:36.544Z,6.64
2019-04-20T01:15:11.277Z,6.40
2019-04-20T01:17:41.409Z,6.10
2019-04-20T01:20:09.131Z,6.08
2019-04-20T01:22:44.363Z,6.09
2019-04-20T01:25:16.903Z,5.94
2019-04-20T01:27:59.086Z,6.13
2019-04-20T01:30:17.460Z,5.93
2019-04-20T01:32:58.539Z,6.18
2019-04-20T01:35:30.369Z,6.14
2019-04-20T01:38:04.182Z,5.97
2019-04-20T01:40:13.091Z,5.93
2019-04-20T01:42:42.582Z,5.77
2019-04-20T01:45:19.098Z,5.65
2019-04-20T01:47:46.161Z,5.64
2019-04-20T01:50:16.682Z,5.51
2019-04-20T01:52:55.029Z,5.55
2019-04-20T01:55:41.566Z,5.39
2019-04-20T01:58:22.062Z,5.62
2019-04-20T02:00:49.148Z,5.52
2019-04-20T02:03:40.533Z,5.49
2019-04-20T02:06:09.914Z,5.45
2019-04-20T02:08:35.852Z,5.42
2019-04-20T02:11:07.369Z,5.43
2019-04-20T02:13:43.580Z,5.50
2019-04-20T02:16:15.763Z,5.34
2019-04-20T02:18:57.968Z,5.23
2019-04-20T02:21:25.877Z,5.26
2019-04-20T02:23:46.203Z,5.16
2019-04-20T02:26:07.418Z,5.19
2019-04-20T02:29:00.768Z,5.14
2019-04-20T02:34:26.085Z,5.03
2019-04-20T02:36:58.015Z,5.02
2019-04-20T02:46:55.876Z,4.41
2019-04-20T03:01:45.564Z,4.19
2019-04-20T03:04:02.917Z,4.19
2019-04-20T03:06:40.009Z,4.19
2019-04-20T03:09:21.400Z,4.17
2019-04-20T03:11:58.203Z,4.08
2019-04-20T03:14:19.140Z,4.06
2019-04-20T03:16:45.821Z,4.17
2019-04-20T03:19:17.347Z,4.41
2019-04-20T03:22:02.366Z,4.41
2019-04-20T03:24:26.825Z,4.48
2019-04-20T03:27:10.835Z,4.36
2019-04-20T03:29:55.252Z,4.36
2019-04-20T03:32:50.083Z,4.33
2019-04-20T03:37:30.612Z,4.54
2019-04-20T03:39:47.609Z,4.31
2019-04-20T03:42:07.569Z,4.13
2019-04-20T03:44:38.904Z,3.91
2019-04-20T03:47:11.479Z,3.79
2019-04-20T03:50:00.245Z,3.93
2019-04-20T03:52:43.612Z,3.84
2019-04-20T03:55:19.905Z,3.75
2019-04-20T03:58:14.315Z,3.78
2019-04-20T04:00:58.282Z,3.72
2019-04-20T04:06:09.556Z,3.66
2019-04-20T04:08:35.365Z,3.61
2019-04-20T04:11:18.865Z,3.55
2019-04-20T04:13:27.303Z,3.60
2019-04-20T04:16:02.885Z,3.61
2019-04-20T04:18:33.310Z,3.68
2019-04-20T04:21:02.908Z,3.82
2019-04-20T04:23:49.120Z,3.78
2019-04-20T04:26:18.745Z,3.76
2019-04-20T04:28:43.402Z,3.81
2019-04-20T04:31:16.569Z,3.73
2019-04-20T04:33:55.941Z,3.64
2019-04-20T04:36:15.401Z,3.65
2019-04-20T04:39:01.042Z,3.67
2019-04-20T04:41:24.231Z,3.68
2019-04-20T04:43:51.744Z,3.82
2019-04-20T04:46:03.761Z,3.74
2019-04-20T04:48:38.419Z,3.86
2019-04-20T04:51:12.866Z,3.94
2019-04-20T04:53:45.215Z,4.10
2019-04-20T04:56:09.403Z,4.29
2019-04-20T04:58:36.288Z,4.40
2019-04-20T05:01:12.672Z,4.47
2019-04-20T05:03:57.715Z,4.34
2019-04-20T05:06:29.154Z,4.29
2019-04-20T05:08:49.914Z,4.50
2019-04-20T05:11:15.216Z,4.66
2019-04-20T05:13:50.581Z,4.94
2019-04-20T05:16:37.279Z,5.07
2019-04-20T05:19:10.496Z,5.25
2019-04-20T05:22:01.375Z,5.29
2019-04-20T05:24:31.238Z,5.32
2019-04-20T05:27:13.659Z,5.55
2019-04-20T05:29:25.034Z,5.84
2019-04-20T05:31:57.183Z,6.08
2019-04-20T05:34:45.366Z,6.23
2019-04-20T05:37:17.342Z,6.32
2019-04-20T05:39:46.525Z,6.52
2019-04-20T05:42:16.192Z,6.68
2019-04-20T05:44:46.107Z,6.93
2019-04-20T05:47:19.544Z,7.12
2019-04-20T05:49:41.491Z,7.23
2019-04-20T05:52:31.509Z,7.49
2019-04-20T05:54:48.973Z,7.62
2019-04-20T05:57:21.080Z,7.93
2019-04-20T05:59:57.181Z,8.20
2019-04-20T06:02:16.946Z,8.31
2019-04-20T06:04:59.959Z,8.36
2019-04-20T06:07:24.000Z,8.58
2019-04-20T06:09:54.438Z,8.80
2019-04-20T06:12:36.306Z,9.06
2019-04-20T06:14:53.700Z,9.30
2019-04-20T06:17:44.463Z,9.54
2019-04-20T06:20:21.556Z,9.75
2019-04-20T06:22:51.361Z,10.11
2019-04-20T06:25:40.818Z,10.32
2019-04-20T06:27:52.809Z,10.35
2019-04-20T06:30:21.912Z,10.47
2019-04-20T06:33:49.903Z,10.63
2019-04-20T06:38:53.909Z,11.02
2019-04-20T06:43:34.810Z,11.43
2019-04-20T06:46:09.775Z,11.59
2019-04-20T06:48:40.315Z,11.60
2019-04-20T06:50:58.112Z,11.66
2019-04-20T06:53:45.313Z,11.77
2019-04-20T06:56:15.768Z,12.10
2019-04-20T06:58:49.773Z,12.46
2019-04-20T07:01:23.587Z,12.83
2019-04-20T07:06:35.587Z,13.31
2019-04-20T07:08:58.137Z,13.39
2019-04-20T07:11:24.063Z,13.54
2019-04-20T07:13:41.259Z,13.80
2019-04-20T07:16:36.310Z,14.26
2019-04-20T07:19:16.825Z,14.51
2019-04-20T07:24:43.134Z,14.52
2019-04-20T07:27:00.741Z,14.56
2019-04-20T07:29:40.890Z,14.56
2019-04-20T07:31:58.802Z,14.80
2019-04-20T07:34:33.502Z,15.39
2019-04-20T07:38:01.338Z,15.40
2019-04-20T07:40:07.758Z,16.09
2019-04-20T07:42:51.815Z,16.30
2019-04-20T07:45:07.454Z,16.19
2019-04-20T07:47:40.494Z,16.24
2019-04-20T07:50:02.397Z,16.45
2019-04-20T07:52:16.420Z,16.22
2019-04-20T07:55:28.543Z,16.13
2019-04-20T07:57:35.031Z,16.76
2019-04-20T08:00:08.445Z,17.00
2019-04-20T08:02:57.233Z,17.12
2019-04-20T08:05:36.934Z,17.15
2019-04-20T08:08:14.845Z,17.39
2019-04-20T08:10:39.377Z,17.72
2019-04-20T08:13:25.154Z,17.89
2019-04-20T08:15:51.213Z,17.77
2019-04-20T08:18:21.379Z,17.39
2019-04-20T08:20:47.567Z,17.13
2019-04-20T08:23:17.249Z,17.24
2019-04-20T08:25:44.610Z,17.27
2019-04-20T08:28:06.339Z,17.60
2019-04-20T08:31:02.463Z,18.45
2019-04-20T08:33:36.650Z,18.99
2019-04-20T08:36:10.757Z,19.63
2019-04-20T08:39:09.621Z,20.04
2019-04-20T08:41:09.700Z,20.32
2019-04-20T08:43:47.037Z,20.18
2019-04-20T08:46:17.753Z,20.12
2019-04-20T08:48:40.831Z,19.90
2019-04-20T08:51:16.321Z,19.73
2019-04-20T08:53:45.071Z,20.05
2019-04-20T08:56:09.826Z,20.12
2019-04-20T08:58:24.898Z,21.05
2019-04-20T09:00:58.701Z,21.28
2019-04-20T09:03:30.156Z,21.77
2019-04-20T09:06:03.533Z,21.62
2019-04-20T09:08:30.804Z,21.76
2019-04-20T09:11:16.881Z,22.02
2019-04-20T09:13:34.294Z,23.12
2019-04-20T09:15:57.917Z,23.12
2019-04-20T09:18:43.355Z,23.39
2019-04-20T09:21:19.938Z,23.52
2019-04-20T09:23:57.915Z,23.82
2019-04-20T09:26:32.758Z,24.15
2019-04-20T09:29:06.883Z,24.33
2019-04-20T09:31:48.646Z,24.91
2019-04-20T09:34:33.756Z,25.92
2019-04-20T09:37:17.894Z,26.10
2019-04-20T09:39:46.118Z,26.19
2019-04-20T09:42:21.101Z,26.51
2019-04-20T09:44:55.549Z,26.49
2019-04-20T09:47:27.440Z,26.10
2019-04-20T09:50:02.719Z,26.17
2019-04-20T09:52:31.252Z,26.06
2019-04-20T09:55:06.910Z,26.50
2019-04-20T09:57:37.962Z,27.61
2019-04-20T10:00:08.674Z,28.35
2019-04-20T10:02:27.771Z,28.94
2019-04-20T10:04:53.776Z,28.98
2019-04-20T10:07:26.149Z,29.06
2019-04-20T10:09:53.867Z,29.23
2019-04-20T10:12:24.068Z,29.98
2019-04-20T10:14:53.265Z,28.88
2019-04-20T10:17:23.446Z,28.83
2019-04-20T10:19:53.690Z,28.05
2019-04-20T10:22:22.597Z,28.03
2019-04-20T10:24:52.659Z,28.00
2019-04-20T10:27:21.726Z,28.21
2019-04-20T10:29:51.443Z,28.37
2019-04-20T10:32:25.088Z,27.75
2019-04-20T10:34:50.729Z,28.36
2019-04-20T10:37:23.866Z,28.39
2019-04-20T10:39:52.840Z,28.66
2019-04-20T10:42:21.792Z,28.43
2019-04-20T10:44:54.931Z,28.68
2019-04-20T10:47:21.168Z,27.90
2019-04-20T10:49:50.901Z,27.70
2019-04-20T10:52:20.202Z,27.76
2019-04-20T10:54:50.275Z,28.16
2019-04-20T10:57:19.522Z,29.00
2019-04-20T10:59:48.278Z,28.61
2019-04-20T11:02:16.943Z,29.67
2019-04-20T11:04:46.464Z,30.31
2019-04-20T11:07:16.362Z,29.91
2019-04-20T11:09:46.977Z,29.94
2019-04-20T11:12:16.600Z,30.56
2019-04-20T11:14:45.757Z,30.88
2019-04-20T11:17:14.555Z,30.84
2019-04-20T11:19:43.416Z,30.01
2019-04-20T11:22:12.516Z,30.39
2019-04-20T11:24:41.418Z,31.01
2019-04-20T11:27:10.108Z,31.82
2019-04-20T11:29:40.273Z,32.47
2019-04-20T11:32:10.335Z,32.01
2019-04-20T11:34:40.846Z,31.38
2019-04-20T11:37:11.027Z,32.09
2019-04-20T11:39:41.054Z,31.49
2019-04-20T11:42:10.105Z,31.30
2019-04-20T11:44:38.858Z,31.76
2019-04-20T11:47:08.458Z,31.42
2019-04-20T11:49:37.606Z,32.31
2019-04-20T11:52:07.653Z,33.26
2019-04-20T11:54:36.662Z,32.10
2019-04-20T11:57:06.956Z,31.93
2019-04-20T11:59:37.138Z,33.86
2019-04-20T12:02:30.147Z,34.45
2019-04-20T12:05:13.219Z,33.73
2019-04-20T12:07:35.256Z,33.36
2019-04-20T12:10:09.067Z,33.10
2019-04-20T12:12:41.229Z,34.17
2019-04-20T12:15:04.955Z,35.34
2019-04-20T12:17:33.637Z,34.75
2019-04-20T12:20:02.370Z,35.25
2019-04-20T12:22:32.350Z,35.96
2019-04-20T12:25:02.460Z,37.28
2019-04-20T12:27:32.431Z,35.40
2019-04-20T12:30:01.796Z,34.61
2019-04-20T12:32:38.602Z,34.68
2019-04-20T12:35:02.564Z,35.95
2019-04-20T12:37:31.376Z,35.04
2019-04-20T12:40:00.800Z,36.14
2019-04-20T12:42:30.789Z,35.27
2019-04-20T12:44:59.703Z,36.06
2019-04-20T12:47:28.376Z,36.71
2019-04-20T12:49:57.090Z,37.08
2019-04-20T12:52:26.300Z,37.33
2019-04-20T12:54:55.026Z,37.27
2019-04-20T12:57:24.754Z,36.95
2019-04-20T12:59:54.096Z,37.00
2019-04-20T13:02:23.197Z,37.21
2019-04-20T13:04:53.290Z,37.08
2019-04-20T13:07:22.963Z,36.40
2019-04-20T13:09:52.744Z,37.38
2019-04-20T13:12:32.088Z,37.43
2019-04-20T13:15:34.189Z,37.57
2019-04-20T13:18:03.653Z,38.46
2019-04-20T13:20:32.459Z,37.51
2019-04-20T13:23:03.650Z,37.97
2019-04-20T13:25:32.647Z,34.48
2019-04-20T13:28:03.067Z,35.88
2019-04-20T13:30:32.298Z,35.89
2019-04-20T13:33:01.708Z,37.50
2019-04-20T13:35:30.581Z,37.56
2019-04-20T13:38:00.306Z,36.92
2019-04-20T13:40:31.045Z,38.36
2019-04-20T13:42:59.968Z,38.15
2019-04-20T13:45:28.823Z,39.28
2019-04-20T13:47:57.434Z,36.95
2019-04-20T13:50:26.347Z,38.76
2019-04-20T13:52:55.300Z,38.43
2019-04-20T13:55:26.907Z,38.07
2019-04-20T13:58:04.230Z,36.96
2019-04-20T14:01:08.499Z,37.22
2019-04-20T14:03:38.744Z,38.76
2019-04-20T14:06:08.900Z,39.44
2019-04-20T14:08:39.250Z,37.51
2019-04-20T14:11:09.367Z,38.76
2019-04-20T14:13:45.064Z,39.17
2019-04-20T14:16:09.175Z,37.68
2019-04-20T14:18:38.042Z,36.68
2019-04-20T14:21:08.033Z,37.39
2019-04-20T14:23:37.061Z,36.50
2019-04-20T14:26:07.013Z,35.13
2019-04-20T14:28:36.742Z,32.53
2019-04-20T14:31:05.860Z,33.51
2019-04-20T14:33:34.897Z,34.99
2019-04-20T14:36:03.659Z,37.02
2019-04-20T14:38:32.353Z,37.58
2019-04-20T14:41:02.239Z,38.46
2019-04-20T14:43:32.945Z,37.93
2019-04-20T14:46:02.950Z,38.28
2019-04-20T14:48:31.863Z,36.32
2019-04-20T14:51:01.506Z,36.18
2019-04-20T14:53:31.484Z,37.64
2019-04-20T14:56:01.750Z,38.28
2019-04-20T14:58:45.242Z,39.20
2019-04-20T15:01:26.913Z,39.77
2019-04-20T15:03:59.819Z,41.61
2019-04-20T15:06:27.471Z,40.06
2019-04-20T15:08:56.675Z,39.49
2019-04-20T15:11:25.485Z,39.35
2019-04-20T15:13:54.143Z,39.32
2019-04-20T15:16:22.968Z,40.61
2019-04-20T15:19:09.792Z,36.82
2019-04-20T15:21:39.649Z,34.63
2019-04-20T15:24:09.355Z,34.91
2019-04-20T15:26:38.507Z,34.25
2019-04-20T15:29:08.422Z,34.67
2019-04-20T15:31:38.418Z,35.93
2019-04-20T15:34:08.815Z,36.49
2019-04-20T15:36:38.135Z,34.94
2019-04-20T15:39:09.300Z,33.72
2019-04-20T15:41:39.137Z,32.74
2019-04-20T15:44:09.290Z,33.87
2019-04-20T15:46:38.811Z,33.58
2019-04-20T15:49:08.575Z,33.71
2019-04-20T15:51:37.539Z,34.72
2019-04-20T15:54:07.528Z,33.86
2019-04-20T15:56:37.602Z,34.01
2019-04-20T15:59:06.508Z,34.23
2019-04-20T16:01:42.180Z,33.71
2019-04-20T16:04:37.288Z,33.01
2019-04-20T16:07:03.423Z,34.49
2019-04-20T16:09:33.666Z,33.69
2019-04-20T16:12:02.742Z,34.58
2019-04-20T16:14:31.390Z,34.68
2019-04-20T16:17:03.972Z,35.72
2019-04-20T16:19:40.690Z,36.61
2019-04-20T16:22:01.808Z,35.18
2019-04-20T16:24:34.646Z,34.34
2019-04-20T16:27:21.536Z,34.41
2019-04-20T16:29:51.609Z,34.47
2019-04-20T16:32:20.678Z,36.01
2019-04-20T16:34:50.692Z,35.15
2019-04-20T16:37:20.178Z,33.97
2019-04-20T16:39:50.329Z,33.73
2019-04-20T16:42:20.284Z,33.53
2019-04-20T16:44:49.453Z,33.22
2019-04-20T16:47:18.449Z,33.46
2019-04-20T16:49:48.718Z,33.70
2019-04-20T16:52:18.946Z,33.54
2019-04-20T16:54:48.193Z,32.68
2019-04-20T16:57:17.266Z,32.53
2019-04-20T16:59:50.524Z,33.17
2019-04-20T17:02:17.877Z,33.31
2019-04-20T17:04:47.485Z,32.53
2019-04-20T17:07:26.921Z,32.43
2019-04-20T17:09:55.970Z,32.62
2019-04-20T17:12:25.810Z,32.98
2019-04-20T17:14:55.762Z,32.86
2019-04-20T17:17:25.334Z,32.11
2019-04-20T17:19:55.407Z,31.54
2019-04-20T17:22:25.488Z,30.93
2019-04-20T17:24:55.555Z,30.51
2019-04-20T17:27:44.704Z,30.44
2019-04-20T17:30:47.843Z,30.66
2019-04-20T17:33:24.060Z,30.10
2019-04-20T17:36:03.060Z,30.02
2019-04-20T17:38:22.599Z,29.43
2019-04-20T17:41:08.761Z,29.70
2019-04-20T17:43:29.206Z,29.30
2019-04-20T17:45:59.613Z,28.64
2019-04-20T17:48:34.962Z,28.92
2019-04-20T17:51:13.949Z,28.45
2019-04-20T17:53:56.786Z,28.30
2019-04-20T17:56:22.467Z,27.97
2019-04-20T17:58:52.225Z,25.65
2019-04-20T18:01:47.837Z,19.80
2019-04-20T18:04:38.286Z,19.80
2019-04-20T18:06:52.576Z,18.32
2019-04-20T18:09:34.814Z,17.51
2019-04-20T18:11:44.907Z,16.83
2019-04-20T18:14:28.603Z,16.26
2019-04-20T18:16:58.059Z,15.78
2019-04-20T18:19:22.295Z,15.37
2019-04-20T18:21:53.807Z,14.97
2019-04-20T18:24:43.585Z,14.52
2019-04-20T18:27:23.312Z,14.45
2019-04-20T18:29:42.990Z,14.13
2019-04-20T18:32:05.130Z,13.99
2019-04-20T18:34:45.875Z,13.98
2019-04-20T18:37:16.907Z,13.74
2019-04-20T18:39:53.438Z,13.74
2019-04-20T18:42:21.289Z,13.54
2019-04-20T18:45:03.913Z,13.37
2019-04-20T18:47:37.292Z,13.23
2019-04-20T18:49:54.952Z,12.89
2019-04-20T18:52:15.760Z,12.76
2019-04-20T18:54:47.877Z,13.04
2019-04-20T18:57:21.479Z,12.96
2019-04-20T18:59:50.913Z,12.72
2019-04-20T19:02:23.082Z,12.65
2019-04-20T19:04:48.100Z,12.53
2019-04-20T19:07:17.535Z,12.28
2019-04-20T19:09:46.701Z,12.18
2019-04-20T19:12:16.529Z,12.07
2019-04-20T19:15:13.164Z,11.88
2019-04-20T19:17:52.167Z,11.87
2019-04-20T19:20:22.103Z,11.78
2019-04-20T19:22:50.733Z,11.72
2019-04-20T19:25:27.373Z,11.74
2019-04-20T19:27:54.685Z,11.69
2019-04-20T19:30:31.146Z,11.43
2019-04-20T19:33:10.846Z,11.26
2019-04-20T19:35:33.664Z,11.09
2019-04-20T19:38:03.353Z,10.98
2019-04-20T19:40:33.651Z,10.81
2019-04-20T19:43:06.993Z,10.62
2019-04-20T19:45:46.629Z,10.50
2019-04-20T19:48:12.278Z,10.53
2019-04-20T19:50:53.769Z,10.44
2019-04-20T19:53:21.158Z,10.17
2019-04-20T19:55:41.226Z,9.92
2019-04-20T19:58:08.488Z,9.87
2019-04-20T20:00:51.244Z,9.79
2019-04-20T20:03:19.733Z,9.54
2019-04-20T20:05:50.909Z,9.76
2019-04-20T20:08:23.632Z,9.69
2019-04-20T20:10:50.627Z,9.74
2019-04-20T20:13:20.424Z,9.76
2019-04-20T20:15:57.669Z,9.66
2019-04-20T20:18:35.349Z,9.58
2019-04-20T20:21:04.765Z,9.70
2019-04-20T20:23:20.621Z,9.86
2019-04-20T20:25:50.645Z,9.56
2019-04-20T20:28:30.509Z,9.29
2019-04-20T20:31:03.365Z,9.11
2019-04-20T20:33:39.253Z,9.15
2019-04-20T20:36:02.230Z,8.99
2019-04-20T20:38:28.008Z,8.91
2019-04-20T20:41:02.575Z,8.54
2019-04-20T20:43:39.861Z,8.47
2019-04-20T20:46:05.370Z,8.36
2019-04-20T20:48:37.963Z,8.29
2019-04-20T20:51:12.496Z,8.29
2019-04-20T20:53:41.381Z,8.21
2019-04-20T20:56:06.332Z,8.23
2019-04-20T20:58:36.161Z,8.06
2019-04-20T21:01:04.547Z,7.84
2019-04-20T21:03:32.270Z,7.79
2019-04-20T21:05:56.046Z,7.84
2019-04-20T21:08:25.831Z,7.92
2019-04-20T21:10:54.815Z,7.87
2019-04-20T21:13:25.938Z,7.83
2019-04-20T21:16:02.597Z,7.58
2019-04-20T21:18:43.670Z,7.44
2019-04-20T21:21:15.036Z,7.19
2019-04-20T21:23:40.995Z,7.13
2019-04-20T21:26:12.830Z,6.98
2019-04-20T21:28:40.149Z,6.88
2019-04-20T21:31:16.314Z,6.88
2019-04-20T21:33:40.970Z,6.88
2019-04-20T21:36:13.557Z,6.83
2019-04-20T21:38:42.740Z,6.84
2019-04-20T21:41:15.020Z,6.81
2019-04-20T21:43:44.406Z,6.72
2019-04-20T21:46:13.461Z,6.52
2019-04-20T21:48:58.820Z,6.42
2019-04-20T21:51:24.392Z,6.47
2019-04-20T21:53:44.162Z,6.61
2019-04-20T21:56:13.164Z,6.69
2019-04-20T21:58:49.462Z,6.70
2019-04-20T22:01:22.138Z,6.65
2019-04-20T22:03:44.918Z,6.44
2019-04-20T22:06:14.142Z,6.21
2019-04-20T22:08:49.386Z,5.78
2019-04-20T22:11:15.671Z,5.86
2019-04-20T22:13:46.423Z,5.77
2019-04-20T22:16:16.685Z,5.72
2019-04-20T22:18:50.977Z,5.56
2019-04-20T22:21:22.451Z,5.44
2019-04-20T22:24:01.814Z,5.48
2019-04-20T22:26:25.392Z,5.38
2019-04-20T22:28:47.933Z,5.54
2019-04-20T22:31:18.352Z,5.37
2019-04-20T22:33:48.694Z,5.36
2019-04-20T22:36:18.198Z,5.28
2019-04-20T22:39:07.528Z,5.32
2019-04-20T22:41:40.772Z,5.41
2019-04-20T22:44:15.452Z,5.39
2019-04-20T22:46:42.183Z,5.36
2019-04-20T22:49:29.452Z,5.17
2019-04-20T22:51:53.151Z,5.05
2019-04-20T22:54:28.015Z,5.19
2019-04-20T22:56:55.006Z,5.35
2019-04-20T22:59:16.534Z,5.23
2019-04-20T23:01:48.484Z,5.09
2019-04-20T23:04:15.008Z,5.10
2019-04-20T23:06:49.553Z,4.99
2019-04-20T23:09:16.855Z,5.02
2019-04-20T23:11:45.687Z,4.95
2019-04-20T23:14:14.505Z,4.83
2019-04-20T23:16:48.366Z,4.97
2019-04-20T23:19:14.229Z,4.89
2019-04-20T23:21:49.614Z,4.66
2019-04-20T23:24:15.351Z,4.43
2019-04-20T23:26:45.940Z,4.00
2019-04-20T23:29:15.378Z,3.83
2019-04-20T23:31:49.291Z,3.69
2019-04-20T23:34:20.140Z,3.60
2019-04-20T23:36:47.636Z,3.67
2019-04-20T23:39:16.903Z,3.69
2019-04-20T23:41:53.644Z,3.91
2019-04-20T23:44:21.047Z,4.19
2019-04-20T23:47:05.361Z,4.30
2019-04-20T23:49:53.525Z,4.30
2019-04-20T23:52:30.708Z,4.18
2019-04-20T23:54:37.213Z,4.19
2019-04-20T23:57:05.932Z,4.10
2019-04-20T23:59:39.559Z,4.11
